createdAt,value
2022-11-18T00:01:10.255Z,1.50
2022-11-18T00:03:38.744Z,1.63
2022-11-18T00:06:07.394Z,1.90
2022-11-18T00:08:34.897Z,1.98
2022-11-18T00:11:44.747Z,1.33
2022-11-18T00:14:27.428Z,3.85
2022-11-18T00:17:03.441Z,3.03
2022-11-18T00:19:35.036Z,2.05
2022-11-18T00:22:02.820Z,1.80
2022-11-18T00:24:30.131Z,1.25
2022-11-18T00:26:57.689Z,1.70
2022-11-18T00:29:28.943Z,1.88
2022-11-18T00:31:57.518Z,2.15
2022-11-18T00:34:26.436Z,1.50
2022-11-18T00:36:53.709Z,1.85
2022-11-18T00:39:21.866Z,1.48
2022-11-18T00:42:08.428Z,1.30
2022-11-18T00:44:36.916Z,2.53
2022-11-18T00:47:04.302Z,2.17
2022-11-18T00:49:31.576Z,1.48
2022-11-18T00:51:58.831Z,2.50
2022-11-18T00:54:26.176Z,1.63
2022-11-18T00:56:53.391Z,1.45
2022-11-18T00:59:21.029Z,2.15
2022-11-18T01:01:49.215Z,1.40
2022-11-18T01:04:17.155Z,1.30
2022-11-18T01:06:44.505Z,1.63
2022-11-18T01:09:11.805Z,1.95
2022-11-18T01:11:57.642Z,2.50
2022-11-18T01:14:26.040Z,1.27
2022-11-18T01:16:57.061Z,2.83
2022-11-18T01:19:24.839Z,1.63
2022-11-18T01:21:52.503Z,2.38
2022-11-18T01:24:19.762Z,1.40
2022-11-18T01:26:47.207Z,1.38
2022-11-18T01:29:14.576Z,1.80
2022-11-18T01:31:55.592Z,1.92
2022-11-18T01:34:29.726Z,1.52
2022-11-18T01:36:58.507Z,1.95
2022-11-18T01:39:26.385Z,1.55
2022-11-18T01:41:53.712Z,1.80
2022-11-18T01:44:58.695Z,1.25
2022-11-18T01:47:48.513Z,1.45
2022-11-18T01:50:19.547Z,2.17
2022-11-18T01:52:51.676Z,1.00
2022-11-18T01:55:26.042Z,2.97
2022-11-18T01:58:02.982Z,1.60
2022-11-18T02:00:30.282Z,2.13
2022-11-18T02:02:58.788Z,1.40
2022-11-18T02:05:28.020Z,1.60
2022-11-18T02:07:56.223Z,1.58
2022-11-18T02:10:25.158Z,1.55
2022-11-18T02:12:54.693Z,1.65
2022-11-18T02:15:37.413Z,3.28
2022-11-18T02:18:14.576Z,1.60
2022-11-18T02:20:44.261Z,1.80
2022-11-18T02:23:48.646Z,1.65
2022-11-18T02:26:32.128Z,1.20
2022-11-18T02:29:16.227Z,1.50
2022-11-18T02:32:06.890Z,2.03
2022-11-18T02:35:00.578Z,3.00
2022-11-18T02:38:08.012Z,1.33
2022-11-18T02:40:46.670Z,1.45
2022-11-18T02:43:21.516Z,1.80
2022-11-18T02:45:52.493Z,2.60
2022-11-18T02:48:22.213Z,1.90
2022-11-18T02:50:51.487Z,3.72
2022-11-18T02:53:21.635Z,1.55
2022-11-18T02:55:49.935Z,1.75
2022-11-18T02:58:20.711Z,1.25
2022-11-18T03:00:59.061Z,1.95
2022-11-18T03:03:34.951Z,1.60
2022-11-18T03:06:29.966Z,2.28
2022-11-18T03:09:24.072Z,1.73
2022-11-18T03:12:12.812Z,1.63
2022-11-18T03:15:28.629Z,1.27
2022-11-18T03:18:33.403Z,1.95
2022-11-18T03:21:08.694Z,1.70
2022-11-18T03:23:49.970Z,1.73
2022-11-18T03:26:29.745Z,2.17
2022-11-18T03:29:06.521Z,1.17
2022-11-18T03:31:50.922Z,1.63
2022-11-18T03:34:35.063Z,2.15
2022-11-18T03:37:10.165Z,1.57
2022-11-18T03:39:43.955Z,1.80
2022-11-18T03:42:27.666Z,2.13
2022-11-18T03:45:06.959Z,1.83
2022-11-18T03:47:45.839Z,1.58
2022-11-18T03:50:20.981Z,1.70
2022-11-18T03:52:51.041Z,1.92
2022-11-18T03:55:23.628Z,2.60
2022-11-18T03:58:03.587Z,2.47
2022-11-18T04:00:36.576Z,2.33
2022-11-18T04:03:04.455Z,1.30
2022-11-18T04:05:37.783Z,1.95
2022-11-18T04:08:13.163Z,1.77
2022-11-18T04:10:52.159Z,2.70
2022-11-18T04:13:40.086Z,1.73
2022-11-18T04:16:09.876Z,2.03
2022-11-18T04:18:37.131Z,2.30
2022-11-18T04:21:04.529Z,1.67
2022-11-18T04:23:31.784Z,2.35
2022-11-18T04:25:59.089Z,1.30
2022-11-18T04:28:26.322Z,1.38
2022-11-18T04:30:53.572Z,2.38
2022-11-18T04:33:20.855Z,2.55
2022-11-18T04:35:48.198Z,2.15
2022-11-18T04:38:20.615Z,2.78
2022-11-18T04:40:49.118Z,3.33
2022-11-18T04:43:16.357Z,1.92
2022-11-18T04:45:43.598Z,1.40
2022-11-18T04:48:10.856Z,1.92
2022-11-18T04:50:38.126Z,2.10
2022-11-18T04:53:05.461Z,2.17
2022-11-18T04:55:35.836Z,2.85
2022-11-18T04:58:03.729Z,2.08
2022-11-18T05:00:31.062Z,2.53
2022-11-18T05:02:58.284Z,2.15
2022-11-18T05:05:25.525Z,1.88
2022-11-18T05:07:52.756Z,1.55
2022-11-18T05:10:20.037Z,3.42
2022-11-18T05:12:50.224Z,1.77
2022-11-18T05:15:21.588Z,2.53
2022-11-18T05:17:48.825Z,1.95
2022-11-18T05:20:16.546Z,2.15
2022-11-18T05:22:43.877Z,3.53
2022-11-18T05:25:11.263Z,1.95
2022-11-18T05:27:38.550Z,1.92
2022-11-18T05:30:06.641Z,3.30
2022-11-18T05:32:33.852Z,1.80
2022-11-18T05:35:01.095Z,2.33
2022-11-18T05:37:28.374Z,1.58
2022-11-18T05:39:55.613Z,2.88
2022-11-18T05:42:41.166Z,1.50
2022-11-18T05:45:08.689Z,1.35
2022-11-18T05:47:55.876Z,2.22
2022-11-18T05:50:23.135Z,2.03
2022-11-18T05:52:50.360Z,2.15
2022-11-18T05:55:19.522Z,2.25
2022-11-18T05:57:46.795Z,1.58
2022-11-18T06:00:14.994Z,2.35
2022-11-18T06:02:44.151Z,1.70
2022-11-18T06:05:12.730Z,1.75
2022-11-18T06:07:42.993Z,2.03
2022-11-18T06:10:16.912Z,1.88
2022-11-18T06:12:47.961Z,3.70
2022-11-18T06:15:24.160Z,2.78
2022-11-18T06:18:23.805Z,2.92
2022-11-18T06:20:56.733Z,2.05
2022-11-18T06:23:24.226Z,2.17
2022-11-18T06:25:52.076Z,2.22
2022-11-18T06:28:20.292Z,5.25
2022-11-18T06:30:47.626Z,1.90
2022-11-18T06:33:14.995Z,2.70
2022-11-18T06:35:43.774Z,2.78
2022-11-18T06:38:11.080Z,2.15
2022-11-18T06:40:38.413Z,2.10
2022-11-18T06:43:25.796Z,2.50
2022-11-18T06:46:11.963Z,2.53
2022-11-18T06:48:39.220Z,3.67
2022-11-18T06:51:07.651Z,2.38
2022-11-18T06:53:35.436Z,1.58
2022-11-18T06:56:07.606Z,2.10
2022-11-18T06:58:35.515Z,2.63
2022-11-18T07:01:18.172Z,2.90
2022-11-18T07:03:47.697Z,2.22
2022-11-18T07:06:17.736Z,2.35
2022-11-18T07:08:45.765Z,3.30
2022-11-18T07:11:15.153Z,4.10
2022-11-18T07:13:43.983Z,7.20
2022-11-18T07:16:13.018Z,4.72
2022-11-18T07:18:41.768Z,6.68
2022-11-18T07:21:19.904Z,3.92
2022-11-18T07:23:47.549Z,6.55
2022-11-18T07:26:15.142Z,6.95
2022-11-18T07:28:42.665Z,9.98
2022-11-18T07:31:15.288Z,5.40
2022-11-18T07:33:44.111Z,6.35
2022-11-18T07:36:14.070Z,5.88
2022-11-18T07:38:41.829Z,6.32
2022-11-18T07:41:15.020Z,6.75
2022-11-18T07:43:43.213Z,7.20
2022-11-18T07:46:16.369Z,14.00
2022-11-18T07:48:45.844Z,9.13
2022-11-18T07:51:14.922Z,5.38
2022-11-18T07:53:43.012Z,8.07
2022-11-18T07:56:11.260Z,6.28
2022-11-18T07:58:38.992Z,3.45
2022-11-18T08:01:12.512Z,6.05
2022-11-18T08:03:40.658Z,6.78
2022-11-18T08:06:09.862Z,7.63
2022-11-18T08:08:37.701Z,3.97
2022-11-18T08:11:08.132Z,4.05
2022-11-18T08:13:36.223Z,4.95
2022-11-18T08:16:12.294Z,4.60
2022-11-18T08:18:39.564Z,11.73
2022-11-18T08:21:06.969Z,10.25
2022-11-18T08:23:40.415Z,12.70
2022-11-18T08:26:13.657Z,14.45
2022-11-18T08:28:44.775Z,21.48
2022-11-18T08:31:14.423Z,12.13
2022-11-18T08:33:41.912Z,18.88
2022-11-18T08:36:12.926Z,16.50
2022-11-18T08:38:40.612Z,19.58
2022-11-18T08:41:10.514Z,17.02
2022-11-18T08:43:37.831Z,18.08
2022-11-18T08:46:05.132Z,22.10
2022-11-18T08:48:32.312Z,15.15
2022-11-18T08:51:00.594Z,13.38
2022-11-18T08:53:28.091Z,10.40
2022-11-18T08:56:00.103Z,13.85
2022-11-18T08:58:28.307Z,10.82
2022-11-18T09:00:55.904Z,10.98
2022-11-18T09:03:23.958Z,13.05
2022-11-18T09:05:51.698Z,10.80
2022-11-18T09:08:19.963Z,10.82
2022-11-18T09:10:47.233Z,10.73
2022-11-18T09:16:02.521Z,13.20
2022-11-18T09:18:30.495Z,18.35
2022-11-18T09:21:08.370Z,12.10
2022-11-18T09:23:37.725Z,16.17
2022-11-18T09:26:08.162Z,12.60
2022-11-18T09:28:35.848Z,17.95
2022-11-18T09:31:14.964Z,10.35
2022-11-18T09:33:42.595Z,14.70
2022-11-18T09:36:19.605Z,12.55
2022-11-18T09:38:51.695Z,7.60
2022-11-18T09:41:53.707Z,24.85
2022-11-18T09:44:31.233Z,10.30
2022-11-18T09:47:01.579Z,11.65
2022-11-18T09:49:37.463Z,15.70
2022-11-18T09:52:35.576Z,7.95
2022-11-18T09:55:11.642Z,13.05
2022-11-18T09:57:50.225Z,12.63
2022-11-18T10:00:18.669Z,13.25
2022-11-18T10:02:54.713Z,9.60
2022-11-18T10:05:29.211Z,7.60
2022-11-18T10:08:22.348Z,5.60
2022-11-18T10:11:17.996Z,6.63
2022-11-18T10:14:03.383Z,8.70
2022-11-18T10:17:02.941Z,13.70
2022-11-18T10:20:08.373Z,11.25
2022-11-18T10:22:58.825Z,5.68
2022-11-18T10:25:26.573Z,6.97
2022-11-18T10:27:56.052Z,5.65
2022-11-18T10:30:26.107Z,8.32
2022-11-18T10:32:58.377Z,6.65
2022-11-18T10:35:46.079Z,7.55
2022-11-18T10:38:16.316Z,6.65
2022-11-18T10:41:02.517Z,6.30
2022-11-18T10:43:50.160Z,7.10
2022-11-18T10:46:35.362Z,6.38
2022-11-18T10:49:13.224Z,5.63
2022-11-18T10:51:46.954Z,6.25
2022-11-18T10:54:22.620Z,6.50
2022-11-18T10:57:14.416Z,6.22
2022-11-18T10:59:54.221Z,7.63
2022-11-18T11:02:34.290Z,8.73
2022-11-18T11:05:18.281Z,6.70
2022-11-18T11:10:59.336Z,12.30
2022-11-18T11:13:30.822Z,8.93
2022-11-18T11:16:03.418Z,8.02
2022-11-18T11:18:42.730Z,8.35
2022-11-18T11:21:20.373Z,7.45
2022-11-18T11:23:47.944Z,4.65
2022-11-18T11:29:26.063Z,8.98
2022-11-18T11:32:15.002Z,10.32
2022-11-18T11:35:04.818Z,5.35
2022-11-18T11:38:16.402Z,5.00
2022-11-18T11:40:54.407Z,7.55
2022-11-18T11:43:30.106Z,8.80
2022-11-18T11:46:06.074Z,3.78
2022-11-18T11:49:04.425Z,7.75
2022-11-18T11:52:19.685Z,4.22
2022-11-18T11:55:14.928Z,7.07
2022-11-18T11:57:49.145Z,6.05
2022-11-18T12:00:19.671Z,14.50
2022-11-18T12:03:18.808Z,6.00
2022-11-18T12:05:46.280Z,4.85
2022-11-18T12:08:16.628Z,6.20
2022-11-18T12:10:51.099Z,7.43
2022-11-18T12:13:39.570Z,7.80
2022-11-18T12:16:34.049Z,11.63
2022-11-18T12:19:08.875Z,4.93
2022-11-18T12:21:45.590Z,5.88
2022-11-18T12:24:37.749Z,11.63
2022-11-18T12:27:09.980Z,4.82
2022-11-18T12:29:52.385Z,8.48
2022-11-18T12:32:34.807Z,8.05
2022-11-18T12:35:14.018Z,7.85
2022-11-18T12:37:53.259Z,6.88
2022-11-18T12:40:34.925Z,6.32
2022-11-18T12:43:21.673Z,7.60
2022-11-18T12:45:51.533Z,8.02
2022-11-18T12:48:28.093Z,7.68
2022-11-18T12:50:59.917Z,5.78
2022-11-18T12:53:41.347Z,7.10
2022-11-18T12:56:33.420Z,4.95
2022-11-18T12:59:01.718Z,5.03
2022-11-18T13:01:36.352Z,6.38
2022-11-18T13:06:43.611Z,6.35
2022-11-18T13:09:25.185Z,7.95
2022-11-18T13:12:05.613Z,12.13
2022-11-18T13:14:59.963Z,7.10
2022-11-18T13:17:52.983Z,8.82
2022-11-18T13:20:35.491Z,8.38
2022-11-18T13:23:33.491Z,7.30
2022-11-18T13:26:07.441Z,4.63
2022-11-18T13:29:05.848Z,8.02
2022-11-18T13:32:02.702Z,5.28
2022-11-18T13:34:31.850Z,6.60
2022-11-18T13:37:00.741Z,5.13
2022-11-18T13:39:31.209Z,7.45
2022-11-18T13:42:07.340Z,4.28
2022-11-18T13:44:37.035Z,5.53
2022-11-18T13:47:23.273Z,5.80
2022-11-18T13:49:54.047Z,6.35
2022-11-18T13:52:33.738Z,6.25
2022-11-18T13:55:06.950Z,5.63
2022-11-18T13:57:36.614Z,6.03
2022-11-18T14:00:08.131Z,4.32
2022-11-18T14:02:46.203Z,5.03
2022-11-18T14:05:21.744Z,2.83
2022-11-18T14:08:06.112Z,8.20
2022-11-18T14:10:51.549Z,4.32
2022-11-18T14:13:26.302Z,3.25
2022-11-18T14:16:23.627Z,5.68
2022-11-18T14:18:51.996Z,4.88
2022-11-18T14:21:38.107Z,4.30
2022-11-18T14:24:05.932Z,6.43
2022-11-18T14:26:36.873Z,6.63
2022-11-18T14:29:23.742Z,7.72
2022-11-18T14:32:15.003Z,8.20
2022-11-18T14:34:42.505Z,5.47
2022-11-18T14:37:14.630Z,2.83
2022-11-18T14:39:41.944Z,6.47
2022-11-18T14:42:13.608Z,3.50
2022-11-18T14:44:40.865Z,4.20
2022-11-18T14:47:24.741Z,5.35
2022-11-18T14:49:51.992Z,6.38
2022-11-18T14:52:19.386Z,2.97
2022-11-18T14:54:46.679Z,3.28
2022-11-18T14:57:18.987Z,2.33
2022-11-18T14:59:46.433Z,5.15
2022-11-18T15:02:16.523Z,6.25
2022-11-18T15:04:44.294Z,5.55
2022-11-18T15:07:21.770Z,2.92
2022-11-18T15:09:50.797Z,8.18
2022-11-18T15:12:18.141Z,2.45
2022-11-18T15:14:45.342Z,2.22
2022-11-18T15:17:13.689Z,4.60
2022-11-18T15:19:41.680Z,4.57
2022-11-18T15:22:09.738Z,8.45
2022-11-18T15:24:37.029Z,5.70
2022-11-18T15:27:05.513Z,5.50
2022-11-18T15:29:33.194Z,5.95
2022-11-18T15:32:00.523Z,6.25
2022-11-18T15:34:27.864Z,4.63
2022-11-18T15:36:55.188Z,7.10
2022-11-18T15:39:22.451Z,6.82
2022-11-18T15:41:49.716Z,5.57
2022-11-18T15:44:17.420Z,7.15
2022-11-18T15:46:47.860Z,5.75
2022-11-18T15:49:17.573Z,5.53
2022-11-18T15:51:45.003Z,7.30
2022-11-18T15:54:12.341Z,9.50
2022-11-18T15:56:41.544Z,10.07
2022-11-18T15:59:14.132Z,6.35
2022-11-18T16:01:47.260Z,8.98
2022-11-18T16:04:17.523Z,6.95
2022-11-18T16:06:45.486Z,7.25
2022-11-18T16:09:14.242Z,10.30
2022-11-18T16:12:03.880Z,8.35
2022-11-18T16:14:31.222Z,10.10
2022-11-18T16:16:58.546Z,10.82
2022-11-18T16:19:28.707Z,8.88
2022-11-18T16:21:57.322Z,13.73
2022-11-18T16:24:29.357Z,11.77
2022-11-18T16:26:56.944Z,12.40
2022-11-18T16:29:24.962Z,12.45
2022-11-18T16:31:54.257Z,9.48
2022-11-18T16:34:28.843Z,17.25
2022-11-18T16:36:58.213Z,10.45
2022-11-18T16:39:27.455Z,8.93
2022-11-18T16:42:02.238Z,11.80
2022-11-18T16:44:33.946Z,9.43
2022-11-18T16:47:01.186Z,9.88
2022-11-18T16:49:28.774Z,9.95
2022-11-18T16:51:57.415Z,10.18
2022-11-18T16:54:29.993Z,20.33
2022-11-18T16:56:58.962Z,10.60
2022-11-18T16:59:31.039Z,14.43
2022-11-18T17:01:59.687Z,11.70
2022-11-18T17:04:28.813Z,13.38
2022-11-18T17:06:59.737Z,10.10
2022-11-18T17:09:27.547Z,11.63
2022-11-18T17:11:56.113Z,11.25
2022-11-18T17:14:24.427Z,13.15
2022-11-18T17:16:52.363Z,12.80
2022-11-18T17:19:21.924Z,13.70
2022-11-18T17:21:50.901Z,13.90
2022-11-18T17:24:22.967Z,12.18
2022-11-18T17:26:52.085Z,15.95
2022-11-18T17:29:19.786Z,13.43
2022-11-18T17:31:47.426Z,18.90
2022-11-18T17:34:15.426Z,16.10
2022-11-18T17:36:43.433Z,18.17
2022-11-18T17:39:13.273Z,15.55
2022-11-18T17:41:59.312Z,17.45
2022-11-18T17:44:28.869Z,13.93
2022-11-18T17:46:56.179Z,13.70
2022-11-18T17:49:23.667Z,13.15
2022-11-18T17:51:53.923Z,15.13
2022-11-18T17:54:22.055Z,14.00
2022-11-18T17:56:52.235Z,12.73
2022-11-18T17:59:20.429Z,14.15
2022-11-18T18:01:47.801Z,14.40
2022-11-18T18:04:20.492Z,12.75
2022-11-18T18:06:51.108Z,15.55
2022-11-18T18:09:30.537Z,13.95
2022-11-18T18:11:58.833Z,15.38
2022-11-18T18:14:26.154Z,14.75
2022-11-18T18:16:53.987Z,13.23
2022-11-18T18:19:23.160Z,16.17
2022-11-18T18:21:50.715Z,14.65
2022-11-18T18:24:20.836Z,15.38
2022-11-18T18:26:48.910Z,16.60
2022-11-18T18:29:16.331Z,17.92
2022-11-18T18:31:43.583Z,14.75
2022-11-18T18:34:10.815Z,14.43
2022-11-18T18:36:38.731Z,23.45
2022-11-18T18:39:06.019Z,17.52
2022-11-18T18:41:33.392Z,21.20
2022-11-18T18:44:01.215Z,19.38
2022-11-18T18:46:29.665Z,16.70
2022-11-18T18:49:03.003Z,18.35
2022-11-18T18:51:36.436Z,18.48
2022-11-18T18:54:04.315Z,16.90
2022-11-18T18:56:32.177Z,16.95
2022-11-18T18:58:59.919Z,17.95
2022-11-18T19:01:28.533Z,19.98
2022-11-18T19:04:02.016Z,16.90
2022-11-18T19:06:58.236Z,20.83
2022-11-18T19:09:22.575Z,16.42
2022-11-18T19:12:08.412Z,17.20
2022-11-18T19:14:35.733Z,16.35
2022-11-18T19:17:09.460Z,18.13
2022-11-18T19:19:57.222Z,20.75
2022-11-18T19:22:25.092Z,17.83
2022-11-18T19:24:53.475Z,15.65
2022-11-18T19:27:21.752Z,18.60
2022-11-18T19:29:49.161Z,17.38
2022-11-18T19:32:16.474Z,17.65
2022-11-18T19:34:43.862Z,17.80
2022-11-18T19:37:11.227Z,17.10
2022-11-18T19:39:39.109Z,17.85
2022-11-18T19:42:06.519Z,17.02
2022-11-18T19:44:34.229Z,18.35
2022-11-18T19:47:01.514Z,15.77
2022-11-18T19:49:28.892Z,20.15
2022-11-18T19:51:56.243Z,15.63
2022-11-18T19:54:23.570Z,18.88
2022-11-18T19:56:50.797Z,19.40
2022-11-18T19:59:18.255Z,16.23
2022-11-18T20:01:45.778Z,18.92
2022-11-18T20:04:13.154Z,18.85
2022-11-18T20:06:40.575Z,17.33
2022-11-18T20:09:11.719Z,15.55
2022-11-18T20:11:39.508Z,16.17
2022-11-18T20:14:08.311Z,17.83
2022-11-18T20:16:37.407Z,15.35
2022-11-18T20:19:10.763Z,18.10
2022-11-18T20:21:39.169Z,15.05
2022-11-18T20:24:07.873Z,18.20
2022-11-18T20:26:37.777Z,16.70
2022-11-18T20:29:08.926Z,17.92
2022-11-18T20:31:37.239Z,15.23
2022-11-18T20:34:05.184Z,16.00
2022-11-18T20:36:35.702Z,16.98
2022-11-18T20:39:11.710Z,19.27
2022-11-18T20:41:39.016Z,16.23
2022-11-18T20:44:06.336Z,15.70
2022-11-18T20:46:34.831Z,21.42
2022-11-18T20:49:02.257Z,17.65
2022-11-18T20:51:29.618Z,18.58
2022-11-18T20:53:59.861Z,19.05
2022-11-18T20:56:28.117Z,17.65
2022-11-18T20:58:58.106Z,18.48
2022-11-18T21:01:28.686Z,18.23
2022-11-18T21:04:00.748Z,16.20
2022-11-18T21:06:30.342Z,15.68
2022-11-18T21:08:59.783Z,17.08
2022-11-18T21:11:27.888Z,16.75
2022-11-18T21:14:18.443Z,21.08
2022-11-18T21:16:49.246Z,19.67
2022-11-18T21:19:16.961Z,16.73
2022-11-18T21:21:44.498Z,16.60
2022-11-18T21:24:13.341Z,16.13
2022-11-18T21:26:41.688Z,18.58
2022-11-18T21:29:10.857Z,16.50
2022-11-18T21:31:38.392Z,17.67
2022-11-18T21:34:06.759Z,16.08
2022-11-18T21:36:35.682Z,19.25
2022-11-18T21:39:05.471Z,16.10
2022-11-18T21:41:33.327Z,19.02
2022-11-18T21:44:05.953Z,15.40
2022-11-18T21:46:35.613Z,16.35
2022-11-18T21:49:04.225Z,15.38
2022-11-18T21:51:32.218Z,14.40
2022-11-18T21:54:00.841Z,19.30
2022-11-18T21:56:30.977Z,15.68
2022-11-18T21:59:00.888Z,16.90
2022-11-18T22:01:31.160Z,17.92
2022-11-18T22:04:00.949Z,15.80
2022-11-18T22:06:30.084Z,16.35
2022-11-18T22:08:57.599Z,17.50
2022-11-18T22:11:25.743Z,16.05
2022-11-18T22:13:53.532Z,17.15
2022-11-18T22:16:23.582Z,18.23
2022-11-18T22:18:58.225Z,15.35
2022-11-18T22:21:28.699Z,16.55
2022-11-18T22:24:01.141Z,17.60
2022-11-18T22:26:29.499Z,19.55
2022-11-18T22:28:57.985Z,15.15
2022-11-18T22:31:26.864Z,16.77
2022-11-18T22:33:55.578Z,15.50
2022-11-18T22:36:25.520Z,17.65
2022-11-18T22:38:53.223Z,15.70
2022-11-18T22:41:41.799Z,15.70
2022-11-18T22:44:10.246Z,16.70
2022-11-18T22:46:38.780Z,15.60
2022-11-18T22:49:07.603Z,16.25
2022-11-18T22:51:36.119Z,16.70
2022-11-18T22:54:36.470Z,14.10
2022-11-18T22:56:51.574Z,15.73
2022-11-18T22:59:19.069Z,16.23
2022-11-18T23:01:46.441Z,14.60
2022-11-18T23:04:13.633Z,14.30
2022-11-18T23:06:40.871Z,15.25
2022-11-18T23:09:09.201Z,15.88
2022-11-18T23:11:55.314Z,16.20
2022-11-18T23:14:22.600Z,17.25
2022-11-18T23:16:49.835Z,14.35
2022-11-18T23:19:18.062Z,14.90
2022-11-18T23:21:46.309Z,15.75
2022-11-18T23:24:15.599Z,14.20
2022-11-18T23:26:43.276Z,13.65
2022-11-18T23:29:11.596Z,14.88
2022-11-18T23:31:42.876Z,15.38
2022-11-18T23:34:12.276Z,14.57
2022-11-18T23:36:39.776Z,14.23
2022-11-18T23:39:07.171Z,14.15
2022-11-18T23:41:34.425Z,14.20
2022-11-18T23:44:01.831Z,16.25
2022-11-18T23:46:29.168Z,14.60
2022-11-18T23:48:56.412Z,15.23
2022-11-18T23:51:25.346Z,16.30
2022-11-18T23:53:55.224Z,15.13
2022-11-18T23:56:24.778Z,15.30
2022-11-18T23:58:53.845Z,13.45
